Time;durP1;ratioP1;P1;durP2;ratioP2;P2;SDS_P1;SDS_P2;PMS_P1;PMS_P2;Temp;Humidity;BMP_temperature;BMP_pressure;BME280_temperature;BME280_humidity;BME280_pressure;Samples;Min_cycle;Max_cycle;Signal;HPM_P1;HPM_P2
2021/12/03 00:00:37;;;;;;;;;;;;;;;;;;2057758;28;20307;-45
2021/12/03 00:01:39;;;;;;;;;;;;;;;;;;2056917;28;19933;-46
2021/12/03 00:04:00;;;;;;;;;;;;;;;;;;2057729;28;19926;-46
2021/12/03 00:05:01;;;;;;;;;;;;;;;;;;2055502;28;19930;-46
2021/12/03 00:06:02;;;;;;;;;;;;;;;;;;2057304;28;19926;-45
2021/12/03 00:07:03;;;;;;;;;;;;;;;;;;2057835;28;19933;-45
2021/12/03 00:08:04;;;;;;;;;;;;;;;;;;2055469;28;20350;-46
2021/12/03 00:09:05;;;;;;;;;;;;;;;;;;2057469;28;19977;-45
2021/12/03 00:10:06;;;;;;;;;;;;;;;;;;2057828;28;19926;-45
2021/12/03 00:11:10;;;;;;;;;;;;;;;;;;2052726;28;20371;-45
2021/12/03 00:12:10;;;;;;;;;;;;;;;;;;2057507;28;19965;-46
2021/12/03 00:13:11;;;;;;;;;;;;;;;;;;2057509;28;19926;-45
2021/12/03 00:14:12;;;;;;;;;;;;;;;;;;2054365;28;19934;-44
2021/12/03 00:15:13;;;;;;;;;;;;;;;;;;2057328;28;20295;-44
2021/12/03 00:16:14;;;;;;;;;;;;;;;;;;2057221;28;19926;-45
2021/12/03 00:17:15;;;;;;;;;;;;;;;;;;2055567;28;19934;-46
2021/12/03 00:18:15;;;;;;;;;;;;;;;;;;2057374;28;20394;-45
2021/12/03 00:19:16;;;;;;;;;;;;;;;;;;2057111;28;20520;-45
2021/12/03 00:20:17;;;;;;;;;;;;;;;;;;2055866;28;19937;-49
2021/12/03 00:21:18;;;;;;;;;;;;;;;;;;2057728;28;19981;-45
2021/12/03 00:22:19;;;;;;;;;;;;;;;;;;2056953;28;19933;-46
2021/12/03 00:23:20;;;;;;;;;;;;;;;;;;2055636;28;19929;-45
2021/12/03 00:24:20;;;;;;;;;;;;;;;;;;2057475;28;19926;-45
2021/12/03 00:25:21;;;;;;;;;;;;;;;;;;2056892;28;19936;-46
2021/12/03 00:26:22;;;;;;;;;;;;;;;;;;2055824;28;19926;-44
2021/12/03 00:27:23;;;;;;;;;;;;;;;;;;2057591;28;19976;-46
2021/12/03 00:28:24;;;;;;;;;;;;;;;;;;2056348;28;19932;-45
2021/12/03 00:29:25;;;;;;;;;;;;;;;;;;2051729;28;20029;-45
2021/12/03 00:30:26;;;;;;;;;;;;;;;;;;2049533;29;19965;-45
2021/12/03 00:31:27;;;;;;;;;;;;;;;;;;2050370;28;20410;-47
2021/12/03 00:32:28;;;;;;;;;;;;;;;;;;2056003;28;20332;-45
2021/12/03 00:33:30;;;;;;;;;;;;;;;;;;2057599;28;20339;-46
2021/12/03 00:34:30;;;;;;;;;;;;;;;;;;2055797;28;20024;-44
2021/12/03 00:35:31;;;;;;;;;;;;;;;;;;2055695;28;19926;-46
2021/12/03 00:36:32;;;;;;;;;;;;;;;;;;2057584;28;19926;-45
2021/12/03 00:37:33;;;;;;;;;;;;;;;;;;2053830;28;19933;-45
2021/12/03 00:38:37;;;;;;;;;;;;;;;;;;2057350;28;19930;-47
2021/12/03 00:39:38;;;;;;;;;;;;;;;;;;2057358;28;19926;-44
2021/12/03 00:40:39;;;;;;;;;;;;;;;;;;2056115;28;19933;-46
2021/12/03 00:41:46;;;;;;;;;;;;;;;;;;2049286;28;20045;-45
2021/12/03 00:42:46;;;;;;;;;;;;;;;;;;2049530;28;19927;-45
2021/12/03 00:43:48;;;;;;;;;;;;;;;;;;2053815;28;19954;-45
2021/12/03 00:44:52;;;;;;;;;;;;;;;;;;2057475;28;20013;-45
2021/12/03 00:45:54;;;;;;;;;;;;;;;;;;2056920;28;20371;-45
2021/12/03 00:46:55;;;;;;;;;;;;;;;;;;2055422;28;20025;-44
2021/12/03 00:47:56;;;;;;;;;;;;;;;;;;2057368;28;19926;-47
2021/12/03 00:48:57;;;;;;;;;;;;;;;;;;2056839;28;19930;-46
2021/12/03 00:49:57;;;;;;;;;;;;;;;;;;2055594;28;20025;-47
2021/12/03 00:50:58;;;;;;;;;;;;;;;;;;2057281;28;19930;-45
2021/12/03 00:51:59;;;;;;;;;;;;;;;;;;2055579;28;19926;-45
2021/12/03 00:53:00;;;;;;;;;;;;;;;;;;2055594;28;19933;-45
2021/12/03 00:54:01;;;;;;;;;;;;;;;;;;2057466;28;19937;-48
2021/12/03 00:55:02;;;;;;;;;;;;;;;;;;2055464;28;19930;-45
2021/12/03 00:56:02;;;;;;;;;;;;;;;;;;2055537;28;19933;-45
2021/12/03 00:57:03;;;;;;;;;;;;;;;;;;2057219;28;19926;-44
2021/12/03 00:58:04;;;;;;;;;;;;;;;;;;2055135;28;19973;-45
2021/12/03 00:59:05;;;;;;;;;;;;;;;;;;2056162;28;19945;-46
2021/12/03 01:00:06;;;;;;;;;;;;;;;;;;2057210;28;20019;-45
2021/12/03 01:01:07;;;;;;;;;;;;;;;;;;2056452;28;19926;-46
2021/12/03 01:02:07;;;;;;;;;;;;;;;;;;2049169;28;19985;-47
2021/12/03 01:03:09;;;;;;;;;;;;;;;;;;2049463;28;20013;-45
2021/12/03 01:04:09;;;;;;;;;;;;;;;;;;2052920;28;19926;-45
2021/12/03 01:05:10;;;;;;;;;;;;;;;;;;2057175;28;20442;-45
2021/12/03 01:06:11;;;;;;;;;;;;;;;;;;2057251;28;20398;-45
2021/12/03 01:07:12;;;;;;;;;;;;;;;;;;2054819;28;19966;-47
2021/12/03 01:08:13;;;;;;;;;;;;;;;;;;2057199;28;19952;-44
2021/12/03 01:09:14;;;;;;;;;;;;;;;;;;2057227;28;19926;-45
2021/12/03 01:10:14;;;;;;;;;;;;;;;;;;2054828;28;20022;-45
2021/12/03 01:11:15;;;;;;;;;;;;;;;;;;2057059;28;20374;-44
2021/12/03 01:12:16;;;;;;;;;;;;;;;;;;2057280;28;19933;-45
2021/12/03 01:13:17;;;;;;;;;;;;;;;;;;2053532;28;20300;-47
2021/12/03 01:14:18;;;;;;;;;;;;;;;;;;2056888;28;19977;-45
2021/12/03 01:15:18;;;;;;;;;;;;;;;;;;2056472;28;19926;-45
2021/12/03 01:16:19;;;;;;;;;;;;;;;;;;2054427;28;19934;-46
2021/12/03 01:17:20;;;;;;;;;;;;;;;;;;2057405;28;19930;-51
2021/12/03 01:18:21;;;;;;;;;;;;;;;;;;2057062;28;19926;-46
2021/12/03 01:19:22;;;;;;;;;;;;;;;;;;2055338;28;20017;-44
2021/12/03 01:20:23;;;;;;;;;;;;;;;;;;2057177;28;20296;-44
2021/12/03 01:21:24;;;;;;;;;;;;;;;;;;2055219;28;19977;-45
2021/12/03 01:22:25;;;;;;;;;;;;;;;;;;2055373;28;20009;-46
2021/12/03 01:23:26;;;;;;;;;;;;;;;;;;2057170;28;19934;-45
2021/12/03 01:24:26;;;;;;;;;;;;;;;;;;2055273;28;19926;-45
2021/12/03 01:25:27;;;;;;;;;;;;;;;;;;2055855;28;20375;-45
2021/12/03 01:26:29;;;;;;;;;;;;;;;;;;2057040;28;20384;-44
2021/12/03 01:27:30;;;;;;;;;;;;;;;;;;2055978;28;19926;-46
2021/12/03 01:28:31;;;;;;;;;;;;;;;;;;2054908;28;19973;-44
2021/12/03 01:29:32;;;;;;;;;;;;;;;;;;2055834;28;19926;-45
2021/12/03 01:30:33;;;;;;;;;;;;;;;;;;2055090;28;19926;-44
2021/12/03 01:31:33;;;;;;;;;;;;;;;;;;2049759;28;19930;-45
2021/12/03 01:32:34;;;;;;;;;;;;;;;;;;2049188;29;19926;-44
2021/12/03 01:33:35;;;;;;;;;;;;;;;;;;2054437;28;20280;-44
2021/12/03 01:34:36;;;;;;;;;;;;;;;;;;2057238;28;19926;-45
2021/12/03 01:35:37;;;;;;;;;;;;;;;;;;2056212;28;19977;-47
2021/12/03 01:36:38;;;;;;;;;;;;;;;;;;2055581;28;19926;-44
2021/12/03 01:37:39;;;;;;;;;;;;;;;;;;2057185;28;20446;-48
2021/12/03 01:38:40;;;;;;;;;;;;;;;;;;2055904;28;19926;-52
2021/12/03 01:39:40;;;;;;;;;;;;;;;;;;2054939;28;19926;-50
2021/12/03 01:40:41;;;;;;;;;;;;;;;;;;2057024;28;19926;-52
2021/12/03 01:41:42;;;;;;;;;;;;;;;;;;2054872;28;20360;-49
2021/12/03 01:42:44;;;;;;;;;;;;;;;;;;2055652;28;20008;-49
2021/12/03 01:43:45;;;;;;;;;;;;;;;;;;2057114;28;19965;-51
2021/12/03 01:44:46;;;;;;;;;;;;;;;;;;2054872;28;19934;-50
2021/12/03 01:45:47;;;;;;;;;;;;;;;;;;2056883;28;20418;-54
2021/12/03 01:46:48;;;;;;;;;;;;;;;;;;2057027;28;19937;-48
2021/12/03 01:47:49;;;;;;;;;;;;;;;;;;2054692;28;20387;-50
2021/12/03 01:48:50;;;;;;;;;;;;;;;;;;2056033;28;19933;-50
2021/12/03 01:49:50;;;;;;;;;;;;;;;;;;2057190;28;19992;-49
2021/12/03 01:50:51;;;;;;;;;;;;;;;;;;2053749;28;19934;-49
2021/12/03 01:51:52;;;;;;;;;;;;;;;;;;2058020;28;20008;-49
2021/12/03 01:52:53;;;;;;;;;;;;;;;;;;2058454;28;19930;-49
2021/12/03 01:53:53;;;;;;;;;;;;;;;;;;2056088;28;19933;-50
2021/12/03 01:54:54;;;;;;;;;;;;;;;;;;2058424;28;19936;-50
2021/12/03 01:55:55;;;;;;;;;;;;;;;;;;2058485;28;19930;-49
2021/12/03 01:56:56;;;;;;;;;;;;;;;;;;2054754;28;20411;-49
2021/12/03 01:57:57;;;;;;;;;;;;;;;;;;2058483;28;19934;-49
2021/12/03 01:58:58;;;;;;;;;;;;;;;;;;2058476;28;20272;-52
2021/12/03 01:59:58;;;;;;;;;;;;;;;;;;2054717;28;19926;-50
2021/12/03 02:00:59;;;;;;;;;;;;;;;;;;2058377;28;19957;-48
2021/12/03 02:02:00;;;;;;;;;;;;;;;;;;2057321;28;20451;-49
2021/12/03 02:03:01;;;;;;;;;;;;;;;;;;2055707;28;19937;-50
2021/12/03 02:04:03;;;;;;;;;;;;;;;;;;2058537;28;19926;-52
2021/12/03 02:05:04;;;;;;;;;;;;;;;;;;2057917;28;20001;-48
2021/12/03 02:06:05;;;;;;;;;;;;;;;;;;2055567;28;19934;-49
2021/12/03 02:07:07;;;;;;;;;;;;;;;;;;2058253;28;19926;-50
2021/12/03 02:08:08;;;;;;;;;;;;;;;;;;2056494;28;20005;-53
2021/12/03 02:09:09;;;;;;;;;;;;;;;;;;2056662;28;19926;-49
2021/12/03 02:10:10;;;;;;;;;;;;;;;;;;2058178;28;19932;-50
2021/12/03 02:11:11;;;;;;;;;;;;;;;;;;2056421;28;21032;-44
2021/12/03 02:12:12;;;;;;;;;;;;;;;;;;2052751;28;19974;-45
2021/12/03 02:13:12;;;;;;;;;;;;;;;;;;2050365;28;19927;-45
2021/12/03 02:14:13;;;;;;;;;;;;;;;;;;2051466;28;19926;-50
2021/12/03 02:15:14;;;;;;;;;;;;;;;;;;2056998;28;19985;-50
2021/12/03 02:16:15;;;;;;;;;;;;;;;;;;2058350;28;19980;-49
2021/12/03 02:17:16;;;;;;;;;;;;;;;;;;2056790;28;19930;-53
2021/12/03 02:18:17;;;;;;;;;;;;;;;;;;2056377;28;19926;-49
2021/12/03 02:19:18;;;;;;;;;;;;;;;;;;2058405;28;19926;-50
2021/12/03 02:20:19;;;;;;;;;;;;;;;;;;2056081;28;20322;-50
2021/12/03 02:21:20;;;;;;;;;;;;;;;;;;2056145;28;20331;-49
2021/12/03 02:22:20;;;;;;;;;;;;;;;;;;2058200;28;19981;-50
2021/12/03 02:23:21;;;;;;;;;;;;;;;;;;2055991;28;19934;-49
2021/12/03 02:24:22;;;;;;;;;;;;;;;;;;2058026;28;19927;-49
2021/12/03 02:25:23;;;;;;;;;;;;;;;;;;2058154;28;20426;-50
2021/12/03 02:26:24;;;;;;;;;;;;;;;;;;2056855;28;20014;-53
2021/12/03 02:27:25;;;;;;;;;;;;;;;;;;2050186;28;20020;-50
2021/12/03 02:28:26;;;;;;;;;;;;;;;;;;2050381;29;20243;-48
2021/12/03 02:29:27;;;;;;;;;;;;;;;;;;2053037;28;19926;-49
2021/12/03 02:30:28;;;;;;;;;;;;;;;;;;2058074;28;19937;-51
2021/12/03 02:31:29;;;;;;;;;;;;;;;;;;2058210;28;19933;-50
2021/12/03 02:32:29;;;;;;;;;;;;;;;;;;2055707;28;19926;-49
2021/12/03 02:33:30;;;;;;;;;;;;;;;;;;2058257;28;20031;-49
2021/12/03 02:34:31;;;;;;;;;;;;;;;;;;2058175;28;20239;-52
2021/12/03 02:35:32;;;;;;;;;;;;;;;;;;2055828;28;19926;-52
2021/12/03 02:36:33;;;;;;;;;;;;;;;;;;2058244;28;20295;-50
2021/12/03 02:37:34;;;;;;;;;;;;;;;;;;2057734;28;19933;-50
2021/12/03 02:38:34;;;;;;;;;;;;;;;;;;2055789;28;20021;-49
2021/12/03 02:39:35;;;;;;;;;;;;;;;;;;2050193;29;20304;-50
2021/12/03 02:40:36;;;;;;;;;;;;;;;;;;2049628;28;19926;-53
2021/12/03 02:41:37;;;;;;;;;;;;;;;;;;2055844;28;19927;-51
2021/12/03 02:42:38;;;;;;;;;;;;;;;;;;2058102;28;20125;-49
2021/12/03 02:43:39;;;;;;;;;;;;;;;;;;2056295;28;19961;-52
2021/12/03 02:44:39;;;;;;;;;;;;;;;;;;2055461;28;19980;-51
2021/12/03 02:45:40;;;;;;;;;;;;;;;;;;2058134;28;19926;-52
2021/12/03 02:46:41;;;;;;;;;;;;;;;;;;2057347;28;19926;-50
2021/12/03 02:47:42;;;;;;;;;;;;;;;;;;2056366;28;20371;-51
2021/12/03 02:48:43;;;;;;;;;;;;;;;;;;2058050;28;19926;-52
2021/12/03 02:49:44;;;;;;;;;;;;;;;;;;2057199;28;19926;-53
2021/12/03 02:50:44;;;;;;;;;;;;;;;;;;2056777;28;20383;-49
2021/12/03 02:51:45;;;;;;;;;;;;;;;;;;2058194;28;19933;-51
2021/12/03 02:52:46;;;;;;;;;;;;;;;;;;2057031;28;19930;-51
2021/12/03 02:53:47;;;;;;;;;;;;;;;;;;2056731;28;19926;-54
2021/12/03 02:54:48;;;;;;;;;;;;;;;;;;2058057;28;20535;-51
2021/12/03 02:55:49;;;;;;;;;;;;;;;;;;2057030;28;19985;-49
2021/12/03 02:56:50;;;;;;;;;;;;;;;;;;2055965;28;20454;-50
2021/12/03 02:57:51;;;;;;;;;;;;;;;;;;2058057;28;19945;-49
2021/12/03 02:58:52;;;;;;;;;;;;;;;;;;2056119;28;20029;-53
2021/12/03 02:59:53;;;;;;;;;;;;;;;;;;2056757;28;20323;-50
2021/12/03 03:00:54;;;;;;;;;;;;;;;;;;2058010;28;19926;-50
2021/12/03 03:01:54;;;;;;;;;;;;;;;;;;2055881;28;19926;-49
2021/12/03 03:03:07;;;;;;;;;;;;;;;;;;2057103;28;20340;-52
2021/12/03 03:04:08;;;;;;;;;;;;;;;;;;2057965;28;19930;-53
2021/12/03 03:05:09;;;;;;;;;;;;;;;;;;2055853;28;20904;-49
2021/12/03 03:06:10;;;;;;;;;;;;;;;;;;2058173;28;19942;-50
2021/12/03 03:07:11;;;;;;;;;;;;;;;;;;2057709;28;20334;-51
2021/12/03 03:08:11;;;;;;;;;;;;;;;;;;2055648;28;20353;-52
2021/12/03 03:09:14;;;;;;;;;;;;;;;;;;2058098;28;19926;-50
2021/12/03 03:10:15;;;;;;;;;;;;;;;;;;2057543;28;20005;-50
2021/12/03 03:11:16;;;;;;;;;;;;;;;;;;2056034;28;19926;-50
2021/12/03 03:12:17;;;;;;;;;;;;;;;;;;2057750;28;20376;-50
2021/12/03 03:13:18;;;;;;;;;;;;;;;;;;2057720;28;19926;-45
2021/12/03 03:14:19;;;;;;;;;;;;;;;;;;2054992;28;19926;-45
2021/12/03 03:15:20;;;;;;;;;;;;;;;;;;2057624;28;19933;-45
2021/12/03 03:16:21;;;;;;;;;;;;;;;;;;2055848;28;19977;-45
2021/12/03 03:17:21;;;;;;;;;;;;;;;;;;2056213;28;19926;-45
2021/12/03 03:18:22;;;;;;;;;;;;;;;;;;2058090;28;20384;-45
2021/12/03 03:19:24;;;;;;;;;;;;;;;;;;2056832;28;20072;-47
2021/12/03 03:20:25;;;;;;;;;;;;;;;;;;2056470;28;19930;-45
2021/12/03 03:21:26;;;;;;;;;;;;;;;;;;2057953;28;19926;-49
2021/12/03 03:22:27;;;;;;;;;;;;;;;;;;2057000;28;20017;-46
2021/12/03 03:23:27;;;;;;;;;;;;;;;;;;2056583;28;19930;-45
2021/12/03 03:24:28;;;;;;;;;;;;;;;;;;2057930;28;19926;-45
2021/12/03 03:25:29;;;;;;;;;;;;;;;;;;2056775;28;19926;-45
2021/12/03 03:26:30;;;;;;;;;;;;;;;;;;2055789;28;20304;-46
2021/12/03 03:27:31;;;;;;;;;;;;;;;;;;2058142;28;19988;-53
2021/12/03 03:28:32;;;;;;;;;;;;;;;;;;2054651;28;19953;-49
2021/12/03 03:29:32;;;;;;;;;;;;;;;;;;2055284;28;20339;-49
2021/12/03 03:30:33;;;;;;;;;;;;;;;;;;2057841;28;19965;-52
2021/12/03 03:31:34;;;;;;;;;;;;;;;;;;2055688;28;20423;-51
2021/12/03 03:32:35;;;;;;;;;;;;;;;;;;2057500;28;20308;-50
2021/12/03 03:33:36;;;;;;;;;;;;;;;;;;2057834;28;19937;-49
2021/12/03 03:34:37;;;;;;;;;;;;;;;;;;2055672;28;19926;-50
2021/12/03 03:35:38;;;;;;;;;;;;;;;;;;2056701;28;20420;-50
2021/12/03 03:36:38;;;;;;;;;;;;;;;;;;2057942;28;19973;-52
2021/12/03 03:37:39;;;;;;;;;;;;;;;;;;2055450;28;19982;-50
2021/12/03 03:38:40;;;;;;;;;;;;;;;;;;2057697;28;20437;-50
2021/12/03 03:39:41;;;;;;;;;;;;;;;;;;2057940;28;20016;-53
2021/12/03 03:40:42;;;;;;;;;;;;;;;;;;2054164;28;19981;-52
2021/12/03 03:41:43;;;;;;;;;;;;;;;;;;2057820;28;19953;-49
2021/12/03 03:42:43;;;;;;;;;;;;;;;;;;2057804;28;20339;-51
2021/12/03 03:43:44;;;;;;;;;;;;;;;;;;2055330;28;19926;-49
2021/12/03 03:44:45;;;;;;;;;;;;;;;;;;2057740;28;19926;-50
2021/12/03 03:45:46;;;;;;;;;;;;;;;;;;2057896;28;19926;-52
2021/12/03 03:46:46;;;;;;;;;;;;;;;;;;2055392;28;19988;-50
2021/12/03 03:47:47;;;;;;;;;;;;;;;;;;2057819;28;20323;-49
2021/12/03 03:48:48;;;;;;;;;;;;;;;;;;2056834;28;19953;-53
2021/12/03 03:49:49;;;;;;;;;;;;;;;;;;2055193;28;19926;-50
2021/12/03 03:50:50;;;;;;;;;;;;;;;;;;2057648;28;19932;-49
2021/12/03 03:51:51;;;;;;;;;;;;;;;;;;2056733;28;19933;-50
2021/12/03 03:52:52;;;;;;;;;;;;;;;;;;2056114;28;19930;-49
2021/12/03 03:53:52;;;;;;;;;;;;;;;;;;2057885;28;20167;-49
2021/12/03 03:54:53;;;;;;;;;;;;;;;;;;2056535;28;20023;-52
2021/12/03 03:55:54;;;;;;;;;;;;;;;;;;2055711;28;20315;-49
2021/12/03 03:56:55;;;;;;;;;;;;;;;;;;2057759;28;20300;-48
2021/12/03 03:57:55;;;;;;;;;;;;;;;;;;2055894;28;19934;-51
2021/12/03 03:58:56;;;;;;;;;;;;;;;;;;2056281;28;19937;-50
2021/12/03 03:59:57;;;;;;;;;;;;;;;;;;2057648;28;20342;-49
2021/12/03 04:00:58;;;;;;;;;;;;;;;;;;2055507;28;19945;-51
2021/12/03 04:01:59;;;;;;;;;;;;;;;;;;2057456;28;20245;-50
2021/12/03 04:03:00;;;;;;;;;;;;;;;;;;2057360;28;20034;-48
2021/12/03 04:04:01;;;;;;;;;;;;;;;;;;2056489;28;19930;-48
2021/12/03 04:05:02;;;;;;;;;;;;;;;;;;2049652;28;20042;-48
2021/12/03 04:06:03;;;;;;;;;;;;;;;;;;2049665;28;19961;-48
2021/12/03 04:07:03;;;;;;;;;;;;;;;;;;2052878;28;19938;-45
2021/12/03 04:08:04;;;;;;;;;;;;;;;;;;2049629;28;19927;-45
2021/12/03 04:09:05;;;;;;;;;;;;;;;;;;2049623;28;20273;-46
2021/12/03 04:10:06;;;;;;;;;;;;;;;;;;2053989;28;19927;-46
2021/12/03 04:11:07;;;;;;;;;;;;;;;;;;2057518;28;19926;-46
2021/12/03 04:12:08;;;;;;;;;;;;;;;;;;2057453;28;20020;-45
2021/12/03 04:13:08;;;;;;;;;;;;;;;;;;2055436;28;19926;-45
2021/12/03 04:14:09;;;;;;;;;;;;;;;;;;2057205;28;19926;-45
2021/12/03 04:15:10;;;;;;;;;;;;;;;;;;2055699;28;20025;-44
2021/12/03 04:16:11;;;;;;;;;;;;;;;;;;2055759;28;19926;-46
2021/12/03 04:17:12;;;;;;;;;;;;;;;;;;2057583;28;20427;-46
2021/12/03 04:18:13;;;;;;;;;;;;;;;;;;2055304;28;19926;-45
2021/12/03 04:19:13;;;;;;;;;;;;;;;;;;2055515;28;19926;-49
2021/12/03 04:20:14;;;;;;;;;;;;;;;;;;2057659;28;20016;-44
2021/12/03 04:21:15;;;;;;;;;;;;;;;;;;2055379;28;20329;-47
2021/12/03 04:22:18;;;;;;;;;;;;;;;;;;2056009;28;19926;-48
2021/12/03 04:23:19;;;;;;;;;;;;;;;;;;2057497;28;20017;-45
2021/12/03 04:24:20;;;;;;;;;;;;;;;;;;2055699;28;19966;-46
2021/12/03 04:25:21;;;;;;;;;;;;;;;;;;2055986;28;20415;-46
2021/12/03 04:26:22;;;;;;;;;;;;;;;;;;2057439;28;19989;-45
2021/12/03 04:27:23;;;;;;;;;;;;;;;;;;2055063;28;19926;-45
2021/12/03 04:28:24;;;;;;;;;;;;;;;;;;2056262;28;19958;-45
2021/12/03 04:29:25;;;;;;;;;;;;;;;;;;2055891;28;19926;-46
2021/12/03 04:30:26;;;;;;;;;;;;;;;;;;2054002;28;19933;-44
2021/12/03 04:31:28;;;;;;;;;;;;;;;;;;2057108;28;19953;-45
2021/12/03 04:32:29;;;;;;;;;;;;;;;;;;2057357;28;20407;-45
2021/12/03 04:33:30;;;;;;;;;;;;;;;;;;2052795;28;19934;-46
2021/12/03 04:34:31;;;;;;;;;;;;;;;;;;2057318;28;19926;-45
2021/12/03 04:35:32;;;;;;;;;;;;;;;;;;2057490;28;19926;-45
2021/12/03 04:36:33;;;;;;;;;;;;;;;;;;2054906;28;20296;-45
2021/12/03 04:37:34;;;;;;;;;;;;;;;;;;2049497;28;20009;-44
2021/12/03 04:38:35;;;;;;;;;;;;;;;;;;2049427;28;19933;-46
2021/12/03 04:39:36;;;;;;;;;;;;;;;;;;2052417;28;19972;-45
2021/12/03 04:40:37;;;;;;;;;;;;;;;;;;2049466;28;19943;-45
2021/12/03 04:41:37;;;;;;;;;;;;;;;;;;2048928;28;20379;-45
2021/12/03 04:42:38;;;;;;;;;;;;;;;;;;2054166;28;19930;-45
2021/12/03 04:43:39;;;;;;;;;;;;;;;;;;2057250;28;19930;-44
2021/12/03 04:44:40;;;;;;;;;;;;;;;;;;2055859;28;19984;-44
2021/12/03 04:45:41;;;;;;;;;;;;;;;;;;2054743;28;19926;-44
2021/12/03 04:46:42;;;;;;;;;;;;;;;;;;2057347;28;19926;-47
2021/12/03 04:47:43;;;;;;;;;;;;;;;;;;2056694;28;19933;-46
2021/12/03 04:48:44;;;;;;;;;;;;;;;;;;2055449;28;20418;-44
2021/12/03 04:49:44;;;;;;;;;;;;;;;;;;2057302;28;20017;-46
2021/12/03 04:50:46;;;;;;;;;;;;;;;;;;2056853;28;19989;-44
2021/12/03 04:51:47;;;;;;;;;;;;;;;;;;2055539;28;19968;-45
2021/12/03 04:52:48;;;;;;;;;;;;;;;;;;2057387;28;19962;-45
2021/12/03 04:53:48;;;;;;;;;;;;;;;;;;2056468;28;20129;-44
2021/12/03 04:54:49;;;;;;;;;;;;;;;;;;2055971;28;19930;-43
2021/12/03 04:55:50;;;;;;;;;;;;;;;;;;2057224;28;19926;-44
2021/12/03 04:56:51;;;;;;;;;;;;;;;;;;2055095;28;19938;-44
2021/12/03 04:57:53;;;;;;;;;;;;;;;;;;2055877;28;19933;-45
2021/12/03 04:58:54;;;;;;;;;;;;;;;;;;2057269;28;20466;-47
2021/12/03 04:59:55;;;;;;;;;;;;;;;;;;2055939;28;19930;-45
2021/12/03 05:00:56;;;;;;;;;;;;;;;;;;2055383;28;20447;-45
2021/12/03 05:01:58;;;;;;;;;;;;;;;;;;2057318;28;19926;-45
2021/12/03 05:03:00;;;;;;;;;;;;;;;;;;2055357;28;20402;-46
2021/12/03 05:04:01;;;;;;;;;;;;;;;;;;2057170;28;19969;-44
2021/12/03 05:05:04;;;;;;;;;;;;;;;;;;2057209;28;20402;-44
2021/12/03 05:06:09;;;;;;;;;;;;;;;;;;2054083;28;20021;-44
2021/12/03 05:07:30;;;;;;;;;;;;;;;;;;2057018;28;20069;-45
2021/12/03 05:08:31;;;;;;;;;;;;;;;;;;2055454;28;19972;-44
2021/12/03 05:09:32;;;;;;;;;;;;;;;;;;2054334;28;20013;-44
2021/12/03 05:10:33;;;;;;;;;;;;;;;;;;2057370;28;19926;-48
2021/12/03 05:11:34;;;;;;;;;;;;;;;;;;2056624;28;19926;-45
2021/12/03 05:12:34;;;;;;;;;;;;;;;;;;2055400;28;19949;-47
2021/12/03 05:13:53;;;;;;;;;;;;;;;;;;2057170;28;19936;-44
2021/12/03 05:14:54;;;;;;;;;;;;;;;;;;2054885;28;20383;-44
2021/12/03 05:15:54;;;;;;;;;;;;;;;;;;2055965;28;20264;-45
2021/12/03 05:16:55;;;;;;;;;;;;;;;;;;2057116;28;19930;-43
2021/12/03 05:17:56;;;;;;;;;;;;;;;;;;2054843;28;19926;-44
2021/12/03 05:18:57;;;;;;;;;;;;;;;;;;2057079;28;19985;-44
2021/12/03 05:19:58;;;;;;;;;;;;;;;;;;2057162;28;20393;-44
2021/12/03 05:20:59;;;;;;;;;;;;;;;;;;2055228;28;19930;-46
2021/12/03 05:21:59;;;;;;;;;;;;;;;;;;2056750;28;19926;-44
2021/12/03 05:23:00;;;;;;;;;;;;;;;;;;2057103;28;20025;-44
2021/12/03 05:24:01;;;;;;;;;;;;;;;;;;2054732;28;19981;-43
2021/12/03 05:25:02;;;;;;;;;;;;;;;;;;2056990;28;20020;-44
2021/12/03 05:26:03;;;;;;;;;;;;;;;;;;2056358;28;19933;-44
2021/12/03 05:27:04;;;;;;;;;;;;;;;;;;2054760;28;19931;-44
2021/12/03 05:28:04;;;;;;;;;;;;;;;;;;2057093;28;19926;-44
2021/12/03 05:29:05;;;;;;;;;;;;;;;;;;2055848;28;19973;-44
2021/12/03 05:30:06;;;;;;;;;;;;;;;;;;2054044;28;20072;-45
2021/12/03 05:31:07;;;;;;;;;;;;;;;;;;2057282;28;20387;-44
2021/12/03 05:32:08;;;;;;;;;;;;;;;;;;2056426;28;19930;-44
2021/12/03 05:33:09;;;;;;;;;;;;;;;;;;2054232;28;19930;-44
2021/12/03 05:34:12;;;;;;;;;;;;;;;;;;2057108;28;19926;-45
2021/12/03 05:35:13;;;;;;;;;;;;;;;;;;2056569;28;19926;-44
2021/12/03 05:36:14;;;;;;;;;;;;;;;;;;2055482;28;20275;-44
2021/12/03 05:37:15;;;;;;;;;;;;;;;;;;2056987;28;19933;-44
2021/12/03 05:38:16;;;;;;;;;;;;;;;;;;2055304;28;19926;-45
2021/12/03 05:39:17;;;;;;;;;;;;;;;;;;2055543;28;19930;-50
2021/12/03 05:40:17;;;;;;;;;;;;;;;;;;2057215;28;19926;-48
2021/12/03 05:41:18;;;;;;;;;;;;;;;;;;2056139;28;20343;-48
2021/12/03 05:42:19;;;;;;;;;;;;;;;;;;2055902;28;19978;-45
2021/12/03 05:43:20;;;;;;;;;;;;;;;;;;2057148;28;20311;-47
2021/12/03 05:44:20;;;;;;;;;;;;;;;;;;2056008;28;19981;-44
2021/12/03 05:45:21;;;;;;;;;;;;;;;;;;2055680;28;19926;-45
2021/12/03 05:46:22;;;;;;;;;;;;;;;;;;2057056;28;19981;-46
2021/12/03 05:47:23;;;;;;;;;;;;;;;;;;2055998;28;19927;-46
2021/12/03 05:48:24;;;;;;;;;;;;;;;;;;2055736;28;20287;-44
2021/12/03 05:49:25;;;;;;;;;;;;;;;;;;2057165;28;19926;-45
2021/12/03 05:50:26;;;;;;;;;;;;;;;;;;2054888;28;20339;-45
2021/12/03 05:51:28;;;;;;;;;;;;;;;;;;2056831;28;19998;-44
2021/12/03 05:52:29;;;;;;;;;;;;;;;;;;2056978;28;20012;-44
2021/12/03 05:53:30;;;;;;;;;;;;;;;;;;2056002;28;20363;-49
2021/12/03 05:54:31;;;;;;;;;;;;;;;;;;2055719;28;19928;-47
2021/12/03 05:55:32;;;;;;;;;;;;;;;;;;2056807;28;19931;-47
2021/12/03 05:56:33;;;;;;;;;;;;;;;;;;2053451;28;19926;-49
2021/12/03 05:57:33;;;;;;;;;;;;;;;;;;2056820;28;19927;-50
2021/12/03 05:58:34;;;;;;;;;;;;;;;;;;2057089;28;19926;-51
2021/12/03 05:59:35;;;;;;;;;;;;;;;;;;2054679;28;20376;-49
2021/12/03 06:00:36;;;;;;;;;;;;;;;;;;2057004;28;19937;-47
2021/12/03 06:01:37;;;;;;;;;;;;;;;;;;2057018;28;20188;-52
2021/12/03 06:02:38;;;;;;;;;;;;;;;;;;2054553;28;20358;-48
2021/12/03 06:03:39;;;;;;;;;;;;;;;;;;2056817;28;19926;-48
2021/12/03 06:04:40;;;;;;;;;;;;;;;;;;2057287;28;19960;-44
2021/12/03 06:05:40;;;;;;;;;;;;;;;;;;2054593;28;19930;-45
2021/12/03 06:06:41;;;;;;;;;;;;;;;;;;2057068;28;20326;-44
2021/12/03 06:07:42;;;;;;;;;;;;;;;;;;2056199;28;19942;-44
2021/12/03 06:08:43;;;;;;;;;;;;;;;;;;2053019;28;19926;-45
2021/12/03 06:09:45;;;;;;;;;;;;;;;;;;2057245;28;19933;-43
2021/12/03 06:10:46;;;;;;;;;;;;;;;;;;2056404;28;20394;-43
2021/12/03 06:11:46;;;;;;;;;;;;;;;;;;2055128;28;19926;-44
2021/12/03 06:12:47;;;;;;;;;;;;;;;;;;2056841;28;19930;-45
2021/12/03 06:13:48;;;;;;;;;;;;;;;;;;2056248;28;19961;-44
2021/12/03 06:14:49;;;;;;;;;;;;;;;;;;2055092;28;20364;-45
2021/12/03 06:15:50;;;;;;;;;;;;;;;;;;2056990;28;20174;-44
2021/12/03 06:16:51;;;;;;;;;;;;;;;;;;2054761;28;19926;-44
2021/12/03 06:17:51;;;;;;;;;;;;;;;;;;2051259;28;20021;-44
2021/12/03 06:18:52;;;;;;;;;;;;;;;;;;2048934;28;19933;-45
2021/12/03 06:19:53;;;;;;;;;;;;;;;;;;2050932;28;20006;-43
2021/12/03 06:20:54;;;;;;;;;;;;;;;;;;2054533;28;20284;-43
2021/12/03 06:21:55;;;;;;;;;;;;;;;;;;2056705;28;19937;-43
2021/12/03 06:22:56;;;;;;;;;;;;;;;;;;2054760;28;20022;-44
2021/12/03 06:23:56;;;;;;;;;;;;;;;;;;2054535;28;20021;-44
2021/12/03 06:24:57;;;;;;;;;;;;;;;;;;2057038;28;20081;-44
2021/12/03 06:25:58;;;;;;;;;;;;;;;;;;2055825;28;19981;-45
2021/12/03 06:26:59;;;;;;;;;;;;;;;;;;2055427;28;20387;-43
2021/12/03 06:28:00;;;;;;;;;;;;;;;;;;2056823;28;19934;-44
2021/12/03 06:29:01;;;;;;;;;;;;;;;;;;2053274;28;20253;-43
2021/12/03 06:30:03;;;;;;;;;;;;;;;;;;2056651;28;19930;-44
2021/12/03 06:31:03;;;;;;;;;;;;;;;;;;2057001;28;20402;-43
2021/12/03 06:32:05;;;;;;;;;;;;;;;;;;2054616;28;19941;-43
2021/12/03 06:33:06;;;;;;;;;;;;;;;;;;2056511;28;19977;-44
2021/12/03 06:34:08;;;;;;;;;;;;;;;;;;2056929;28;19929;-44
2021/12/03 06:35:08;;;;;;;;;;;;;;;;;;2054525;28;19978;-43
2021/12/03 06:36:09;;;;;;;;;;;;;;;;;;2056805;28;19926;-44
2021/12/03 06:37:10;;;;;;;;;;;;;;;;;;2057362;28;19933;-44
2021/12/03 06:38:11;;;;;;;;;;;;;;;;;;2054369;28;19926;-44
2021/12/03 06:39:12;;;;;;;;;;;;;;;;;;2058263;28;20012;-44
2021/12/03 06:40:13;;;;;;;;;;;;;;;;;;2058305;28;19981;-45
2021/12/03 06:41:14;;;;;;;;;;;;;;;;;;2054690;28;19926;-45
2021/12/03 06:42:14;;;;;;;;;;;;;;;;;;2058269;28;20008;-44
2021/12/03 06:43:15;;;;;;;;;;;;;;;;;;2058177;28;19926;-44
2021/12/03 06:44:17;;;;;;;;;;;;;;;;;;2055079;28;19926;-44
2021/12/03 06:45:18;;;;;;;;;;;;;;;;;;2058226;28;20012;-45
2021/12/03 06:46:19;;;;;;;;;;;;;;;;;;2056992;28;19926;-44
2021/12/03 06:47:20;;;;;;;;;;;;;;;;;;2055698;28;20141;-45
2021/12/03 06:48:21;;;;;;;;;;;;;;;;;;2058190;28;19926;-45
2021/12/03 06:49:22;;;;;;;;;;;;;;;;;;2057697;28;19933;-43
2021/12/03 06:50:23;;;;;;;;;;;;;;;;;;2055631;28;19932;-44
2021/12/03 06:51:24;;;;;;;;;;;;;;;;;;2057792;28;20041;-44
2021/12/03 06:52:25;;;;;;;;;;;;;;;;;;2056247;28;19926;-45
2021/12/03 06:53:31;;;;;;;;;;;;;;;;;;2056565;28;19926;-44
2021/12/03 06:54:32;;;;;;;;;;;;;;;;;;2058370;28;20025;-48
2021/12/03 06:55:40;;;;;;;;;;;;;;;;;;2056093;28;20009;-48
2021/12/03 06:56:47;;;;;;;;;;;;;;;;;;2057951;28;19930;-49
2021/12/03 06:57:48;;;;;;;;;;;;;;;;;;2058199;28;19976;-51
2021/12/03 06:58:49;;;;;;;;;;;;;;;;;;2055768;28;19953;-48